Time;durP1;ratioP1;P1;durP2;ratioP2;P2;SDS_P1;SDS_P2;PMS_P1;PMS_P2;Temp;Humidity;BMP_temperature;BMP_pressure;BME280_temperature;BME280_humidity;BME280_pressure;Samples;Min_cycle;Max_cycle;Signal;HPM_P1;HPM_P2
2023/10/01 00:00:36;;;;;;;9.40;1.60;;;;;;;17.11;90.15;101466.34;5060590;28;20024;-72
2023/10/01 00:03:04;;;;;;;14.20;2.30;;;;;;;17.09;89.60;101457.59;5060922;28;20035;-72
2023/10/01 00:05:29;;;;;;;12.98;1.88;;;;;;;17.19;89.71;101466.06;5059532;28;20040;-73
2023/10/01 00:07:54;;;;;;;7.10;1.17;;;;;;;16.97;91.18;101462.94;5080951;28;20029;-72
2023/10/01 00:10:22;;;;;;;8.23;1.42;;;;;;;16.99;90.63;101457.28;5078841;28;20032;-71
2023/10/01 00:12:52;;;;;;;10.93;1.88;;;;;;;17.05;90.72;101461.81;5047369;28;20025;-72
2023/10/01 00:15:21;;;;;;;8.48;1.65;;;;;;;17.04;90.75;101465.59;5060343;28;20372;-72
2023/10/01 00:17:50;;;;;;;10.57;1.63;;;;;;;16.95;90.21;101437.03;5081792;28;20024;-72
2023/10/01 00:20:22;;;;;;;8.15;1.30;;;;;;;17.06;91.00;101458.03;5049211;28;20039;-72
2023/10/01 00:22:52;;;;;;;6.60;1.40;;;;;;;17.20;90.27;101461.44;5078887;28;20020;-72
2023/10/01 00:25:19;;;;;;;13.45;1.75;;;;;;;17.09;90.56;101461.13;5045346;28;20024;-72
2023/10/01 00:27:45;;;;;;;11.68;1.70;;;;;;;17.05;90.57;101456.38;5082081;28;20048;-72
2023/10/01 00:30:11;;;;;;;6.82;1.13;;;;;;;17.05;90.28;101469.97;5048332;28;20040;-72
2023/10/01 00:32:38;;;;;;;9.85;1.75;;;;;;;16.99;89.51;101455.41;5064975;28;20091;-71
2023/10/01 00:35:04;;;;;;;11.25;1.70;;;;;;;17.16;88.50;101449.38;5064589;28;20029;-71
2023/10/01 00:37:30;;;;;;;9.90;1.48;;;;;;;17.28;88.63;101474.72;5047422;28;20092;-71
2023/10/01 00:39:59;;;;;;;14.75;2.08;;;;;;;17.29;89.05;101477.22;5075656;28;20052;-71
2023/10/01 00:42:29;;;;;;;7.05;1.35;;;;;;;17.20;89.46;101470.44;5059394;28;20028;-72
2023/10/01 00:44:58;;;;;;;9.35;1.90;;;;;;;17.23;89.75;101461.00;5068815;28;20092;-72
2023/10/01 00:47:25;;;;;;;11.60;1.63;;;;;;;17.26;89.53;101468.69;5082239;28;20063;-71
2023/10/01 00:49:52;;;;;;;10.30;1.80;;;;;;;17.21;89.97;101472.06;5062235;28;20034;-71
2023/10/01 00:52:19;;;;;;;15.05;1.52;;;;;;;17.11;90.53;101450.03;5047514;28;20029;-72
2023/10/01 00:54:45;;;;;;;10.07;2.10;;;;;;;17.12;90.53;101465.31;5083379;28;20025;-71
2023/10/01 00:57:12;;;;;;;12.13;1.95;;;;;;;16.86;91.48;101444.66;5086462;28;20031;-71
2023/10/01 00:59:37;;;;;;;10.57;1.85;;;;;;;16.97;92.34;101456.69;5052002;28;20045;-71
2023/10/01 01:02:09;;;;;;;9.48;1.80;;;;;;;17.03;91.66;101455.78;5102456;28;20056;-72
2023/10/01 01:04:42;;;;;;;8.55;1.52;;;;;;;16.96;93.36;101466.72;5060930;28;20441;-72
2023/10/01 01:07:19;;;;;;;9.18;1.67;;;;;;;16.98;93.65;101452.88;5083863;28;20048;-72
2023/10/01 01:09:47;;;;;;;10.05;1.70;;;;;;;17.18;92.65;101467.09;5084649;28;20056;-71
2023/10/01 01:12:13;;;;;;;11.82;1.92;;;;;;;17.07;92.92;101460.53;5068603;28;20092;-72
2023/10/01 01:14:44;;;;;;;11.63;1.73;;;;;;;16.97;93.04;101465.66;5068461;28;20374;-72
2023/10/01 01:17:12;;;;;;;9.25;1.70;;;;;;;17.05;92.54;101470.81;5087313;28;20036;-72
2023/10/01 01:19:38;;;;;;;11.25;1.35;;;;;;;17.08;92.33;101467.63;5069449;28;20083;-71
2023/10/01 01:22:04;;;;;;;14.85;1.63;;;;;;;17.09;92.78;101466.56;5042290;28;20487;-71
2023/10/01 01:24:30;;;;;;;14.65;2.13;;;;;;;17.13;92.47;101461.53;5060710;28;20059;-70
2023/10/01 01:27:06;;;;;;;13.75;1.98;;;;;;;17.05;92.66;101450.91;5063961;28;20016;-71
2023/10/01 01:29:40;;;;;;;10.65;1.80;;;;;;;17.12;92.85;101465.31;5063181;28;20111;-71
2023/10/01 01:32:15;;;;;;;;;;;;;;;17.12;91.98;101457.97;5081448;28;20016;-71
2023/10/01 01:34:41;;;;;;;9.75;1.70;;;;;;;17.10;92.09;101465.50;5062770;28;19931;-72
2023/10/01 01:37:08;;;;;;;12.05;2.17;;;;;;;17.08;92.39;101453.19;5081962;28;20052;-72
2023/10/01 01:39:35;;;;;;;8.13;1.52;;;;;;;17.14;92.48;101452.28;5064172;28;20028;-72
2023/10/01 01:42:02;;;;;;;10.85;2.33;;;;;;;17.18;92.40;101458.09;5081769;28;20047;-72
2023/10/01 01:44:28;;;;;;;8.95;1.60;;;;;;;17.28;92.02;101456.50;5062861;28;20055;-72
2023/10/01 01:47:00;;;;;;;11.40;1.60;;;;;;;17.14;93.00;101449.56;5047668;28;20487;-72
2023/10/01 01:49:25;;;;;;;9.73;1.60;;;;;;;17.03;94.19;101453.88;5084515;28;20380;-71
2023/10/01 01:51:59;;;;;;;10.20;1.30;;;;;;;17.14;92.74;101453.13;5083883;28;20035;-72
2023/10/01 01:54:27;;;;;;;9.20;1.52;;;;;;;17.17;92.15;101451.00;5050142;28;20032;-71
2023/10/01 01:56:55;;;;;;;13.32;1.85;;;;;;;17.00;92.23;101437.19;5084641;28;20423;-72
2023/10/01 01:59:29;;;;;;;10.23;1.60;;;;;;;17.08;92.65;101447.75;5076748;28;20046;-71
2023/10/01 02:01:55;;;;;;;;;;;;;;;17.08;92.68;101448.59;5068930;28;20387;-71
2023/10/01 02:04:22;;;;;;;13.40;1.63;;;;;;;17.07;92.39;101446.09;5084918;28;19915;-72
2023/10/01 02:06:48;;;;;;;9.63;1.65;;;;;;;17.02;92.92;101446.78;5066920;28;20108;-72
2023/10/01 02:09:19;;;;;;;10.50;1.75;;;;;;;17.17;91.69;101446.41;5060407;28;20487;-71
2023/10/01 02:11:48;;;;;;;10.63;1.60;;;;;;;17.29;91.10;101450.03;5060932;28;20103;-72
2023/10/01 02:14:30;;;;;;;8.65;1.23;;;;;;;17.12;91.00;101440.81;5064076;28;20143;-71
2023/10/01 02:17:03;;;;;;;6.22;1.30;;;;;;;17.05;91.38;101431.88;5065908;28;20028;-71
2023/10/01 02:19:29;;;;;;;12.80;1.70;;;;;;;17.26;90.60;101446.94;5048128;28;20475;-71
2023/10/01 02:22:05;;;;;;;16.92;1.90;;;;;;;17.22;90.12;101427.53;5064015;28;20457;-71
2023/10/01 02:24:44;;;;;;;9.23;1.50;;;;;;;17.22;90.70;101443.84;5063843;28;20031;-71
2023/10/01 02:27:15;;;;;;;10.75;1.52;;;;;;;17.27;90.82;101443.97;5061636;28;20052;-72
2023/10/01 02:32:28;;;;;;;9.18;1.92;;;;;;;17.24;90.96;101449.88;5084090;28;20054;-72
2023/10/01 02:34:56;;;;;;;10.68;1.63;;;;;;;17.22;90.80;101462.88;5066138;28;20427;-71
2023/10/01 02:37:29;;;;;;;8.75;1.45;;;;;;;17.23;90.41;101450.09;5050023;28;20119;-71
2023/10/01 02:40:12;;;;;;;7.55;1.27;;;;;;;17.29;89.90;101460.91;5066196;28;20520;-71
2023/10/01 02:42:38;;;;;;;10.55;1.35;;;;;;;17.20;90.47;101450.56;5051255;28;20020;-72
2023/10/01 02:45:30;;;;;;;7.68;1.48;;;;;;;17.04;89.94;101427.53;5083522;28;20100;-71
2023/10/01 02:48:13;;;;;;;12.70;1.77;;;;;;;17.09;90.77;101454.88;5068982;28;20035;-70
2023/10/01 02:50:36;;;;;;;11.73;1.50;;;;;;;16.96;93.34;101452.31;5069923;28;20044;-72
2023/10/01 02:53:03;;;;;;;11.93;2.20;;;;;;;17.01;91.87;101426.06;5066914;28;20039;-71
2023/10/01 02:55:28;;;;;;;10.38;1.83;;;;;;;17.16;91.34;101461.06;5050711;28;20039;-71
2023/10/01 02:57:53;;;;;;;11.32;1.73;;;;;;;17.02;90.52;101426.91;5066961;28;20036;-71
2023/10/01 03:00:30;;;;;;;8.27;1.40;;;;;;;17.14;90.42;101442.25;5084641;28;20031;-71
2023/10/01 03:02:58;;;;;;;12.48;2.15;;;;;;;17.12;90.22;101444.38;5068212;28;20523;-72
2023/10/01 03:07:51;;;;;;;8.20;1.52;;;;;;;17.09;91.63;101439.38;5086557;28;20039;-72
2023/10/01 03:10:27;;;;;;;7.47;1.38;;;;;;;17.09;91.43;101454.88;5052435;28;20032;-71
2023/10/01 03:12:57;;;;;;;6.22;1.15;;;;;;;16.97;91.70;101465.66;5068559;28;20059;-72
2023/10/01 03:15:24;;;;;;;9.90;1.98;;;;;;;16.93;91.26;101433.72;5048067;28;20025;-72
2023/10/01 03:17:57;;;;;;;13.02;2.00;;;;;;;17.12;91.43;101465.31;5079672;28;20127;-72
2023/10/01 03:28:35;;;;;;;10.25;1.73;;;;;;;17.10;91.01;101460.06;5064228;28;20082;-72
2023/10/01 03:31:06;;;;;;;9.30;1.60;;;;;;;17.10;90.48;101465.50;5061309;28;20529;-72
2023/10/01 03:33:59;;;;;;;14.10;1.98;;;;;;;17.12;91.27;101457.97;5044367;28;20043;-72
2023/10/01 03:36:25;;;;;;;8.15;1.52;;;;;;;17.08;91.19;101458.63;5039004;28;20029;-72
2023/10/01 03:38:57;;;;;;;12.70;2.17;;;;;;;17.06;90.80;101452.59;5057310;28;20047;-72
2023/10/01 03:41:24;;;;;;;6.20;1.63;;;;;;;17.06;90.80;101460.75;5045175;28;20037;-71
2023/10/01 03:44:10;;;;;;;10.40;1.50;;;;;;;17.10;90.84;101467.41;5061731;28;20028;-71
2023/10/01 03:46:47;;;;;;;10.57;2.22;;;;;;;17.04;90.91;101465.59;5061613;28;20037;-71
2023/10/01 03:51:59;;;;;;;10.23;1.80;;;;;;;17.11;90.30;101471.78;5062242;28;20102;-71
2023/10/01 03:54:52;;;;;;;9.68;1.88;;;;;;;17.19;90.18;101476.94;5029074;28;20262;-71
2023/10/01 03:57:16;;;;;;;11.65;2.00;;;;;;;17.08;90.25;101466.78;5061011;28;20102;-71
2023/10/01 03:59:51;;;;;;;8.68;2.00;;;;;;;17.06;88.96;101467.03;5040867;28;20448;-72
2023/10/01 04:02:27;;;;;;;9.00;2.13;;;;;;;16.86;88.40;101415.59;5041801;28;20439;-72
2023/10/01 04:04:56;;;;;;;9.70;1.70;;;;;;;17.16;88.32;101465.69;5061665;28;20044;-71
2023/10/01 04:07:22;;;;;;;9.57;1.80;;;;;;;17.11;90.16;101467.16;5074697;28;20055;-72
2023/10/01 04:09:50;;;;;;;9.70;1.50;;;;;;;17.08;90.38;101462.19;5068547;28;20024;-71
2023/10/01 04:12:19;;;;;;;12.45;2.20;;;;;;;16.91;90.76;101464.66;5066207;28;20039;-71
2023/10/01 04:14:49;;;;;;;6.00;1.15;;;;;;;16.87;91.12;101465.34;5061238;28;20030;-71
2023/10/01 04:17:25;;;;;;;7.95;1.73;;;;;;;17.03;89.69;101469.38;5044742;28;20108;-72
2023/10/01 04:20:00;;;;;;;9.52;1.67;;;;;;;17.05;88.87;101462.66;5066149;28;20042;-71
2023/10/01 04:22:29;;;;;;;6.38;1.50;;;;;;;17.02;89.06;101471.25;5067132;28;20028;-72
2023/10/01 04:25:01;;;;;;;6.80;1.45;;;;;;;16.86;89.90;101448.22;5065877;28;20041;-71
2023/10/01 04:27:34;;;;;;;9.00;1.50;;;;;;;16.72;90.04;101433.06;5086041;28;20031;-72
2023/10/01 04:30:01;;;;;;;5.05;1.48;;;;;;;16.78;89.63;101432.19;5087926;28;20024;-72
2023/10/01 04:32:27;;;;;;;10.07;1.70;;;;;;;16.85;89.96;101462.88;5088966;28;20025;-72
2023/10/01 04:35:00;;;;;;;11.75;1.83;;;;;;;16.80;89.99;101457.25;5054601;28;20406;-71
2023/10/01 04:37:40;;;;;;;9.30;1.52;;;;;;;16.99;88.14;101462.72;5088282;28;20039;-71
2023/10/01 04:40:53;;;;;;;6.28;1.63;;;;;;;16.96;88.03;101458.56;5088634;28;20052;-71
2023/10/01 04:42:55;;;;;;;11.57;1.77;;;;;;;16.96;88.13;101465.91;5077103;28;20032;-71
2023/10/01 04:45:24;;;;;;;8.63;1.73;;;;;;;16.88;87.97;101472.44;5083439;28;20025;-71
2023/10/01 04:47:55;;;;;;;9.48;1.83;;;;;;;16.83;88.69;101470.41;5047395;28;20033;-72
2023/10/01 04:50:29;;;;;;;6.93;1.60;;;;;;;16.98;87.96;101470.03;5077319;28;20028;-71
2023/10/01 04:52:58;;;;;;;8.90;1.70;;;;;;;16.95;88.20;101469.66;5080402;28;20024;-71
2023/10/01 04:55:28;;;;;;;10.38;2.30;;;;;;;16.94;88.61;101471.53;5046895;28;20466;-72
2023/10/01 04:57:54;;;;;;;5.85;1.10;;;;;;;16.94;88.42;101463.38;5062837;28;20025;-72
2023/10/01 05:00:22;;;;;;;7.72;1.63;;;;;;;16.93;88.38;101466.34;5062716;28;20029;-72
2023/10/01 05:02:49;;;;;;;8.93;1.75;;;;;;;16.95;88.51;101464.22;5062741;28;20033;-72
2023/10/01 05:05:25;;;;;;;6.68;1.27;;;;;;;17.04;88.38;101479.19;5062250;28;20525;-72
2023/10/01 05:07:54;;;;;;;7.65;1.40;;;;;;;16.97;88.82;101483.84;5061499;28;20044;-71
2023/10/01 05:10:19;;;;;;;10.65;1.63;;;;;;;16.98;89.09;101491.78;5066921;28;20043;-72
2023/10/01 05:12:45;;;;;;;9.88;2.00;;;;;;;17.07;88.41;101504.03;5108572;28;20012;-71
2023/10/01 05:15:24;;;;;;;8.70;1.55;;;;;;;17.16;87.90;101499.13;5091941;28;20024;-72
2023/10/01 05:17:50;;;;;;;12.57;1.70;;;;;;;17.14;88.25;101490.38;5082211;28;20218;-71
2023/10/01 05:20:16;;;;;;;8.43;1.60;;;;;;;17.10;88.73;101495.41;5080931;28;20024;-72
2023/10/01 05:22:51;;;;;;;8.85;1.55;;;;;;;17.00;88.19;101477.97;5063596;28;20039;-71
2023/10/01 05:25:18;;;;;;;9.05;1.50;;;;;;;17.10;87.68;101494.59;5067765;28;20037;-72
2023/10/01 05:27:45;;;;;;;11.00;1.60;;;;;;;17.11;87.62;101501.69;5073506;28;20092;-72
2023/10/01 05:32:58;;;;;;;7.97;1.45;;;;;;;17.00;87.22;101503.28;5078709;28;20035;-71
2023/10/01 05:35:28;;;;;;;8.13;1.52;;;;;;;17.08;86.16;101507.56;5088178;28;20074;-73
2023/10/01 05:37:54;;;;;;;9.63;1.58;;;;;;;17.11;84.96;101509.84;5050670;28;20510;-71
2023/10/01 05:40:19;;;;;;;11.50;1.40;;;;;;;17.16;84.30;101507.28;5067248;28;20029;-72
2023/10/01 05:42:47;;;;;;;7.15;1.50;;;;;;;17.20;83.91;101521.28;5069329;28;20106;-71
2023/10/01 05:45:18;;;;;;;6.88;1.42;;;;;;;17.08;84.20;101507.56;5089024;28;20033;-72
2023/10/01 05:47:54;;;;;;;5.75;1.35;;;;;;;16.91;85.40;101529.06;5085538;28;20025;-71
2023/10/01 05:50:22;;;;;;;9.02;2.05;;;;;;;17.06;84.60;101531.47;5083074;28;20033;-70
2023/10/01 05:52:50;;;;;;;6.47;1.15;;;;;;;17.01;84.49;101518.53;5065272;28;20040;-70
2023/10/01 05:55:16;;;;;;;7.00;1.67;;;;;;;17.23;84.40;101540.69;5092035;28;20018;-69
2023/10/01 05:57:43;;;;;;;4.88;1.20;;;;;;;17.28;84.39;101543.53;5089022;28;20032;-69
2023/10/01 06:00:26;;;;;;;8.50;1.67;;;;;;;17.21;84.24;101531.09;5070125;28;20059;-69
2023/10/01 06:03:00;;;;;;;6.65;1.60;;;;;;;17.16;83.18;101525.50;5077929;28;20438;-70
2023/10/01 06:05:33;;;;;;;;;;;;;;;17.25;82.55;101525.00;5062258;28;20074;-69
2023/10/01 06:07:59;;;;;;;6.15;1.42;;;;;;;17.04;82.82;101514.53;5066652;28;19923;-70
2023/10/01 06:10:35;;;;;;;8.32;1.42;;;;;;;17.09;82.36;101501.09;5064125;28;20036;-69
2023/10/01 06:13:02;;;;;;;9.23;1.58;;;;;;;17.34;81.84;101522.78;5081478;28;20408;-70
2023/10/01 06:15:29;;;;;;;3.00;0.95;;;;;;;17.35;82.49;101525.28;5060535;28;20115;-69
2023/10/01 06:17:55;;;;;;;8.13;1.40;;;;;;;17.40;82.42;101527.31;5079285;28;20204;-69
2023/10/01 06:20:23;;;;;;;9.88;1.35;;;;;;;17.47;81.76;101524.53;5044825;28;20142;-69
2023/10/01 06:22:55;;;;;;;7.35;1.48;;;;;;;17.51;81.87;101536.59;5028554;28;20024;-70
2023/10/01 06:25:37;;;;;;;11.77;1.25;;;;;;;17.51;82.24;101539.31;5054582;28;20028;-69
2023/10/01 06:28:07;;;;;;;6.50;1.23;;;;;;;17.59;82.34;101542.59;5043210;28;20033;-69
2023/10/01 06:30:33;;;;;;;7.40;1.45;;;;;;;17.40;82.19;101521.06;5044877;28;20178;-70
2023/10/01 06:32:59;;;;;;;4.70;1.00;;;;;;;17.49;82.15;101517.81;5078663;28;20548;-70
2023/10/01 06:35:25;;;;;;;8.10;1.20;;;;;;;17.60;82.70;101540.69;5046399;28;20028;-70
2023/10/01 06:37:53;;;;;;;4.65;1.20;;;;;;;17.60;82.91;101541.50;5079756;28;20111;-70
2023/10/01 06:40:31;;;;;;;7.55;1.55;;;;;;;17.61;83.21;101550.50;5061127;28;20029;-69
2023/10/01 06:42:59;;;;;;;9.10;1.40;;;;;;;17.61;83.18;101551.38;5047725;28;20028;-70
2023/10/01 06:45:44;;;;;;;6.03;1.17;;;;;;;17.56;82.67;101547.66;5078554;28;20036;-70
2023/10/01 06:48:09;;;;;;;5.77;1.23;;;;;;;17.55;82.25;101554.16;5077783;28;20055;-70
2023/10/01 06:50:37;;;;;;;8.00;1.30;;;;;;;17.66;81.83;101561.56;5058483;28;20744;-70
2023/10/01 06:53:03;;;;;;;7.07;1.35;;;;;;;17.48;82.16;101546.06;5058658;28;20021;-70
2023/10/01 06:55:30;;;;;;;9.07;1.40;;;;;;;17.74;81.47;101561.22;5059239;28;20021;-70
2023/10/01 06:57:56;;;;;;;5.68;1.10;;;;;;;17.59;81.32;101542.59;5042759;28;20568;-71
2023/10/01 07:00:22;;;;;;;9.68;1.65;;;;;;;17.68;81.21;101558.59;5076000;28;20028;-70
2023/10/01 07:02:51;;;;;;;6.68;1.23;;;;;;;17.57;81.51;101554.75;5058843;28;20024;-70
2023/10/01 07:05:23;;;;;;;6.18;1.27;;;;;;;17.64;81.53;101560.94;5077538;28;20052;-70
2023/10/01 07:07:50;;;;;;;8.98;1.45;;;;;;;17.65;81.40;101557.19;5077174;28;20028;-70
2023/10/01 07:10:19;;;;;;;8.05;1.40;;;;;;;17.72;80.35;101560.66;5057972;28;20410;-70
2023/10/01 07:12:57;;;;;;;11.02;1.38;;;;;;;17.78;79.43;101557.06;5075343;28;20021;-70
2023/10/01 07:15:25;;;;;;;5.03;1.15;;;;;;;17.98;79.10;101558.66;5061861;28;20546;-69
2023/10/01 07:17:51;;;;;;;8.07;1.40;;;;;;;17.90;80.16;101565.25;5078545;28;20028;-71
2023/10/01 07:20:21;;;;;;;7.25;1.58;;;;;;;17.92;79.84;101563.16;5061472;28;20059;-71
2023/10/01 07:22:46;;;;;;;5.20;0.93;;;;;;;17.83;78.69;101564.53;5060400;28;20403;-70
2023/10/01 07:25:28;;;;;;;6.20;0.90;;;;;;;17.84;78.04;101555.28;5056941;28;20488;-69
2023/10/01 07:27:55;;;;;;;10.18;1.45;;;;;;;17.92;77.64;101568.59;5061906;28;20036;-70
2023/10/01 07:30:39;;;;;;;5.85;1.30;;;;;;;17.94;77.93;101573.81;5069000;28;20024;-73
2023/10/01 07:33:08;;;;;;;6.82;1.20;;;;;;;17.95;77.49;101568.16;5078152;28;20040;-70
2023/10/01 07:35:39;;;;;;;6.75;1.20;;;;;;;18.00;77.23;101567.44;5091597;28;20029;-70
2023/10/01 07:38:06;;;;;;;11.13;1.42;;;;;;;17.97;77.09;101555.09;5082734;28;20029;-71
2023/10/01 07:40:52;;;;;;;7.55;1.00;;;;;;;18.05;76.97;101556.69;5042589;28;20044;-70
2023/10/01 07:43:18;;;;;;;9.15;1.38;;;;;;;18.09;77.34;101560.63;5077377;28;20085;-70
2023/10/01 07:45:55;;;;;;;7.40;1.38;;;;;;;18.15;78.11;101558.88;5077837;28;20445;-70
2023/10/01 07:48:23;;;;;;;12.07;1.60;;;;;;;18.13;78.55;101559.09;5078204;28;20029;-71
2023/10/01 07:50:51;;;;;;;8.70;1.40;;;;;;;18.17;78.48;101556.72;5078310;28;20039;-70
2023/10/01 07:53:18;;;;;;;9.30;1.55;;;;;;;18.17;77.52;101573.91;5061932;28;20092;-71
2023/10/01 07:55:46;;;;;;;7.53;1.40;;;;;;;18.23;76.71;101583.06;5079826;28;20016;-70
2023/10/01 07:58:44;;;;;;;9.48;1.17;;;;;;;18.22;75.87;101582.22;5078896;28;20062;-70
2023/10/01 08:03:56;;;;;;;7.20;1.40;;;;;;;17.99;75.80;101569.34;5074118;28;20039;-71
2023/10/01 08:06:41;;;;;;;9.65;1.27;;;;;;;18.07;77.13;101590.78;5076409;28;20447;-70
2023/10/01 08:09:12;;;;;;;;;;;;;;;18.12;77.73;101594.75;5077953;28;20036;-70
2023/10/01 08:14:26;;;;;;;;;;;;;;;18.29;76.63;101596.59;5078243;28;20399;-70
2023/10/01 08:16:57;;;;;;;5.35;0.80;;;;;;;18.38;75.70;101593.56;5060692;28;19919;-71
2023/10/01 08:19:34;;;;;;;6.38;1.40;;;;;;;18.26;76.33;101597.03;5077319;28;20387;-70
2023/10/01 08:22:13;;;;;;;6.53;1.02;;;;;;;18.33;76.52;101591.50;5046002;28;20104;-71
2023/10/01 08:24:38;;;;;;;10.82;1.50;;;;;;;18.51;76.14;101599.63;5078272;28;20051;-70
2023/10/01 08:27:04;;;;;;;7.68;1.20;;;;;;;18.34;76.33;101593.16;5076589;28;20403;-70
2023/10/01 08:29:59;;;;;;;4.43;0.90;;;;;;;18.34;75.68;101604.06;5043508;28;20075;-70
2023/10/01 08:32:22;;;;;;;6.43;1.20;;;;;;;18.26;75.96;101602.50;5078909;28;20083;-71
2023/10/01 08:35:23;;;;;;;6.18;1.10;;;;;;;18.44;75.38;101596.19;5074725;28;20044;-70
2023/10/01 08:37:49;;;;;;;8.48;1.35;;;;;;;18.43;75.12;101586.31;5071135;28;20032;-72
2023/10/01 08:40:16;;;;;;;4.68;0.98;;;;;;;18.18;74.28;101552.94;5049031;28;20057;-72
2023/10/01 08:42:44;;;;;;;5.03;1.00;;;;;;;18.34;74.17;101598.59;5083278;28;20542;-74
2023/10/01 08:45:12;;;;;;;8.40;1.33;;;;;;;18.33;73.53;101602.41;5082650;28;20046;-73
2023/10/01 08:47:38;;;;;;;9.15;1.73;;;;;;;18.37;73.10;101602.75;5066658;28;20384;-75
2023/10/01 08:50:26;;;;;;;5.93;1.05;;;;;;;18.38;72.80;101615.34;5064306;28;20035;-72
2023/10/01 08:53:00;;;;;;;8.50;0.90;;;;;;;18.42;73.11;101616.53;5064245;28;20021;-74
2023/10/01 08:55:38;;;;;;;7.47;1.45;;;;;;;18.49;72.97;101630.91;5066527;28;20035;-72
2023/10/01 08:58:15;;;;;;;5.93;0.95;;;;;;;18.70;72.05;101630.34;5062952;28;20419;-72
2023/10/01 09:00:48;;;;;;;4.50;0.88;;;;;;;18.60;71.88;101630.09;5075815;28;20031;-72
2023/10/01 09:03:34;;;;;;;12.27;1.40;;;;;;;18.61;71.73;101622.75;5060109;28;20469;-72
2023/10/01 09:06:03;;;;;;;6.15;1.00;;;;;;;18.55;72.41;101622.63;5059489;28;20040;-73
2023/10/01 09:08:32;;;;;;;9.48;1.33;;;;;;;18.52;72.72;101620.34;5074381;28;20078;-72
2023/10/01 09:11:00;;;;;;;6.88;0.90;;;;;;;18.51;72.63;101621.44;5075020;28;20052;-72
2023/10/01 09:13:26;;;;;;;6.85;0.98;;;;;;;18.53;72.07;101613.84;5057083;28;20056;-71
2023/10/01 09:15:56;;;;;;;6.80;1.05;;;;;;;18.57;71.84;101622.38;5046932;28;20021;-71
2023/10/01 09:18:25;;;;;;;3.55;1.00;;;;;;;18.56;70.83;101628.91;5061984;28;20479;-72
2023/10/01 09:21:20;;;;;;;7.88;1.15;;;;;;;18.64;71.22;101633.19;5061601;28;20036;-72
2023/10/01 09:23:56;;;;;;;6.25;1.33;;;;;;;18.62;72.13;101635.31;5080849;28;20395;-71
2023/10/01 09:26:40;;;;;;;7.38;1.17;;;;;;;18.68;72.47;101634.41;5062132;28;20066;-71
2023/10/01 09:29:18;;;;;;;;;;;;;;;18.81;71.63;101638.81;5046253;28;20032;-72
2023/10/01 09:31:59;;;;;;;4.85;0.93;;;;;;;18.71;70.81;101626.59;5058888;28;19916;-71
2023/10/01 09:34:33;;;;;;;5.38;1.13;;;;;;;18.69;70.58;101638.78;5059594;28;20086;-72
2023/10/01 09:37:01;;;;;;;5.10;0.80;;;;;;;18.61;70.14;101615.41;5042981;28;20024;-72
2023/10/01 09:39:43;;;;;;;7.05;0.98;;;;;;;18.73;70.40;101626.38;5058374;28;20120;-72
2023/10/01 09:42:24;;;;;;;3.65;0.77;;;;;;;18.64;70.30;101635.91;5076932;28;20020;-71
2023/10/01 09:44:54;;;;;;;5.47;0.60;;;;;;;18.65;69.82;101630.25;5063594;28;20089;-71
2023/10/01 09:47:24;;;;;;;5.45;0.98;;;;;;;18.64;69.57;101628.59;5060354;28;20063;-72
2023/10/01 09:49:51;;;;;;;7.63;1.00;;;;;;;18.62;69.49;101616.25;5061156;28;20029;-72
2023/10/01 09:52:27;;;;;;;6.13;0.90;;;;;;;18.70;69.95;101641.25;5061647;28;20368;-72
2023/10/01 09:55:24;;;;;;;7.30;1.10;;;;;;;18.72;70.29;101628.28;5079721;28;20052;-71
2023/10/01 09:57:52;;;;;;;6.78;0.90;;;;;;;18.59;70.63;101650.25;5079141;28;20039;-72
2023/10/01 10:00:18;;;;;;;6.97;1.02;;;;;;;18.55;71.03;101646.31;5061510;28;20028;-72
2023/10/01 10:02:54;;;;;;;5.38;1.00;;;;;;;18.39;71.97;101636.06;5044806;28;20025;-73
2023/10/01 10:05:27;;;;;;;7.55;1.40;;;;;;;18.38;71.68;101629.78;5079210;28;20388;-72
2023/10/01 10:07:54;;;;;;;8.73;1.17;;;;;;;18.19;72.68;101634.44;5079903;28;20399;-72
2023/10/01 10:10:27;;;;;;;7.05;1.00;;;;;;;18.40;72.23;101654.06;5078994;28;20039;-71
2023/10/01 10:13:15;;;;;;;6.05;1.05;;;;;;;18.40;71.11;101629.56;5079244;28;20088;-71
2023/10/01 10:15:55;;;;;;;4.38;0.88;;;;;;;18.42;71.08;101631.00;5060695;28;20024;-72
2023/10/01 10:18:23;;;;;;;4.82;0.88;;;;;;;18.30;70.76;101611.03;5077856;28;20070;-72
2023/10/01 10:20:59;;;;;;;6.90;1.27;;;;;;;18.85;69.88;101659.13;5061011;28;20028;-72
2023/10/01 10:23:31;;;;;;;7.35;1.50;;;;;;;18.74;69.92;101639.78;5060958;28;20037;-72
2023/10/01 10:26:32;;;;;;;5.82;1.00;;;;;;;18.95;69.99;101668.41;5060008;28;20052;-71
2023/10/01 10:28:58;;;;;;;8.13;1.05;;;;;;;18.94;69.97;101654.97;5078801;28;20078;-72
2023/10/01 10:31:30;;;;;;;6.15;1.38;;;;;;;19.06;69.71;101660.47;5046062;28;20380;-71
2023/10/01 10:34:21;;;;;;;5.75;0.95;;;;;;;18.83;70.03;101666.69;5079810;28;20055;-72
2023/10/01 10:36:50;;;;;;;5.18;0.90;;;;;;;18.95;69.71;101664.84;5079765;28;20032;-72
2023/10/01 10:39:48;;;;;;;4.38;1.00;;;;;;;18.89;69.62;101616.69;5059404;28;20032;-72
2023/10/01 10:42:29;;;;;;;6.40;0.93;;;;;;;19.19;69.16;101652.91;5057699;28;20020;-72
2023/10/01 10:45:21;;;;;;;4.78;1.05;;;;;;;19.30;68.02;101658.59;5050455;28;20024;-71
2023/10/01 10:48:01;;;;;;;9.65;1.17;;;;;;;19.06;69.47;101664.03;5085230;28;20071;-72
2023/10/01 10:50:45;;;;;;;3.67;0.95;;;;;;;19.13;69.32;101666.66;5078583;28;20020;-72
2023/10/01 10:53:20;;;;;;;8.18;1.30;;;;;;;19.17;68.71;101668.69;5078254;28;20031;-71
2023/10/01 10:55:55;;;;;;;5.93;0.88;;;;;;;19.16;69.18;101671.63;5078425;28;20102;-71
2023/10/01 10:58:25;;;;;;;7.47;1.30;;;;;;;19.25;68.76;101667.50;5060635;28;20021;-72
2023/10/01 11:00:55;;;;;;;4.25;0.90;;;;;;;19.40;68.33;101676.06;5044457;28;20097;-72
2023/10/01 11:03:54;;;;;;;4.47;1.15;;;;;;;19.23;66.66;101675.91;5060358;28;20021;-72
2023/10/01 11:06:42;;;;;;;6.32;1.10;;;;;;;19.51;65.52;101688.03;5078467;28;20075;-72
2023/10/01 11:09:25;;;;;;;3.90;0.98;;;;;;;19.31;65.90;101658.38;5060697;28;20081;-71
2023/10/01 11:12:18;;;;;;;5.18;1.08;;;;;;;19.48;64.79;101669.41;5077849;28;20491;-71
2023/10/01 11:14:54;;;;;;;5.05;0.90;;;;;;;19.80;63.52;101671.78;5073187;28;20051;-72
2023/10/01 11:17:22;;;;;;;4.80;1.13;;;;;;;19.71;63.64;101683.09;5061826;28;20090;-72
2023/10/01 11:19:58;;;;;;;8.82;0.82;;;;;;;19.74;63.26;101683.69;5078839;28;20024;-72
2023/10/01 11:22:23;;;;;;;10.52;1.20;;;;;;;19.92;63.02;101697.19;5059826;28;20074;-71
2023/10/01 11:24:53;;;;;;;4.50;1.00;;;;;;;19.78;62.40;101696.59;5078578;28;20029;-71
2023/10/01 11:27:25;;;;;;;6.25;0.98;;;;;;;19.52;62.34;101665.13;5058818;28;20504;-71
2023/10/01 11:29:58;;;;;;;4.45;0.90;;;;;;;19.65;62.54;101680.47;5057300;28;20029;-72
2023/10/01 11:33:12;;;;;;;5.43;1.02;;;;;;;19.63;63.05;101693.50;5041153;28;20131;-72
2023/10/01 11:36:09;;;;;;;6.30;1.10;;;;;;;19.22;64.41;101682.44;5073400;28;20391;-71
2023/10/01 11:38:38;;;;;;;8.00;1.20;;;;;;;19.33;64.61;101690.88;5061759;28;20054;-72
2023/10/01 11:41:09;;;;;;;4.43;1.00;;;;;;;19.34;64.50;101671.53;5057160;28;20031;-72
2023/10/01 11:43:42;;;;;;;5.57;1.30;;;;;;;19.30;65.42;101674.97;5062496;28;20019;-71
2023/10/01 11:46:20;;;;;;;4.97;1.38;;;;;;;19.28;65.10;101679.84;5063506;28;20028;-72
2023/10/01 11:49:14;;;;;;;4.43;0.90;;;;;;;19.21;64.76;101672.59;5068160;28;20426;-71
2023/10/01 11:51:48;;;;;;;4.90;1.10;;;;;;;19.07;65.20;101665.69;5086571;28;20113;-71
2023/10/01 11:54:19;;;;;;;9.50;0.93;;;;;;;19.06;65.71;101672.22;5068419;28;20033;-72
2023/10/01 11:57:05;;;;;;;7.47;1.45;;;;;;;19.08;66.10;101669.25;5084894;28;20032;-71
2023/10/01 11:59:35;;;;;;;4.82;1.02;;;;;;;19.08;66.06;101667.38;5066719;28;20025;-71
2023/10/01 12:02:22;;;;;;;6.93;1.45;;;;;;;19.02;65.98;101671.03;5085663;28;20028;-72
2023/10/01 12:04:54;;;;;;;6.53;1.88;;;;;;;19.13;65.64;101661.19;5082690;28;20031;-71
2023/10/01 12:07:21;;;;;;;5.05;1.13;;;;;;;19.25;64.99;101667.50;5037415;28;20052;-71
2023/10/01 12:09:54;;;;;;;5.97;1.17;;;;;;;19.08;64.92;101661.06;5085434;28;20040;-71
2023/10/01 12:12:39;;;;;;;3.35;0.82;;;;;;;19.06;64.46;101665.94;5067203;28;20042;-72